Portada
METAR-TAF:

METAR-TAF

Aeroports :

Vladikavkaz, Rússia

latitud: 43-12-18N, longitud: 044-36-24E, altitud: 510 m

Observació

L'informe es va fer fa 1 hora i 8 minuts, a les 17:00 UTC
Vent 6 kt del Est/Nord-Est
Temperatura -1°C
Humitat 100%
Pressió 1030 hPa
Visibilitat: 6000 m
Cel ennuvolat

METAR: URMO 171700Z 06003MPS 6000 BKN/// M01/M01 Q1030 R09/010070 NOSIG RMK QFE728/0971

Hora: 21:08 (18:08 UTC)

Pronòstic

L'informe es va fer fa 4 hores i 8 minuts, a les 14:00 UTC
Pronòstic vàlid del 17 a les 15 UTC al 17 a les 24 UTC
Vent 6 kt del Est
Visibilitat 10 km o més
Cel ennuvolat a una alçada de 2000 ft
Temporalment
l' 17 a les 15 UTC al 17 a les 18 UTC
Visibilitat: 3100 m
Cel ennuvolat a una alçada de 1100 ft
boirina

TAF: URMO 171400Z 1715/1724 10003MPS 9999 BKN020 TEMPO 1715/1718 3100 BR BKN011

Observacions i pronòstics meteorològics de més de 4000 aeroports (METAR i TAF).

Les estacions disponibles són els punts grocs i vermells al mapa.

Posi el ratolí al punt desitjat per veure el nom de l'estació.

Feu clic per veure les observacions i els pronòstics meteorològics.

Per canviar el mapa: feu clic els botons verds amb una creu de color negre per apropar; al botó verd amb un guió per allunyar la imatge; o en les fletxes verdes per a mapes adjacents.


METAR-TAF: